createdAt,value
2022-10-17T00:00:09.635Z,10.12
2022-10-17T00:01:09.693Z,10.16
2022-10-17T00:02:09.608Z,10.16
2022-10-17T00:03:09.596Z,10.16
2022-10-17T00:04:09.584Z,10.16
2022-10-17T00:05:09.570Z,10.17
2022-10-17T00:06:09.557Z,10.15
2022-10-17T00:07:09.547Z,10.16
2022-10-17T00:08:09.531Z,10.16
2022-10-17T00:09:09.520Z,10.13
2022-10-17T00:10:09.505Z,10.12
2022-10-17T00:11:09.494Z,10.12
2022-10-17T00:12:09.480Z,10.10
2022-10-17T00:13:09.500Z,10.09
2022-10-17T00:14:09.452Z,10.07
2022-10-17T00:15:09.445Z,10.04
2022-10-17T00:16:09.434Z,10.04
2022-10-17T00:17:09.417Z,10.01
2022-10-17T00:18:09.404Z,9.99
2022-10-17T00:19:09.392Z,10.01
2022-10-17T00:20:09.386Z,9.98
2022-10-17T00:21:09.366Z,9.98
2022-10-17T00:22:09.353Z,10.02
2022-10-17T00:23:15.349Z,10.04
2022-10-17T00:24:09.332Z,10.01
2022-10-17T00:25:09.320Z,9.97
2022-10-17T00:26:09.306Z,9.95
2022-10-17T00:27:09.290Z,9.95
2022-10-17T00:28:09.277Z,9.97
2022-10-17T00:29:09.393Z,9.97
2022-10-17T00:30:09.254Z,9.98
2022-10-17T00:31:09.236Z,10.01
2022-10-17T00:32:09.224Z,10.05
2022-10-17T00:33:09.224Z,10.07
2022-10-17T00:34:09.197Z,10.07
2022-10-17T00:35:09.189Z,10.04
2022-10-17T00:36:09.179Z,10.01
2022-10-17T00:37:09.167Z,9.99
2022-10-17T00:38:09.149Z,10.01
2022-10-17T00:39:09.137Z,10.02
2022-10-17T00:40:09.125Z,10.04
2022-10-17T00:41:09.112Z,10.02
2022-10-17T00:42:09.095Z,9.99
2022-10-17T00:43:09.083Z,9.92
2022-10-17T00:44:09.076Z,9.89
2022-10-17T00:45:09.084Z,9.83
2022-10-17T00:46:09.043Z,9.82
2022-10-17T00:47:09.033Z,9.82
2022-10-17T00:48:09.017Z,9.82
2022-10-17T00:49:09.010Z,9.77
2022-10-17T00:50:09.001Z,9.74
2022-10-17T00:51:08.981Z,9.72
2022-10-17T00:52:08.967Z,9.72
2022-10-17T00:53:08.955Z,9.69
2022-10-17T00:54:08.942Z,9.69
2022-10-17T00:55:09.126Z,9.68
2022-10-17T00:56:08.919Z,9.68
2022-10-17T00:57:08.904Z,9.68
2022-10-17T00:58:08.897Z,9.68
2022-10-17T00:59:08.903Z,9.69
2022-10-17T01:00:08.871Z,9.65
2022-10-17T01:01:08.925Z,9.58
2022-10-17T01:02:08.841Z,9.55
2022-10-17T01:03:08.831Z,9.51
2022-10-17T01:04:08.819Z,9.51
2022-10-17T01:05:08.806Z,9.51
2022-10-17T01:06:08.792Z,9.51
2022-10-17T01:07:08.779Z,9.54
2022-10-17T01:08:08.774Z,9.55
2022-10-17T01:09:08.750Z,9.56
2022-10-17T01:10:08.881Z,9.56
2022-10-17T01:11:08.726Z,9.58
2022-10-17T01:12:08.713Z,9.58
2022-10-17T01:13:08.702Z,9.54
2022-10-17T01:14:08.692Z,9.56
2022-10-17T01:15:08.675Z,9.56
2022-10-17T01:16:08.677Z,9.61
2022-10-17T01:17:08.672Z,9.64
2022-10-17T01:18:08.637Z,9.66
2022-10-17T01:19:08.622Z,9.65
2022-10-17T01:20:08.611Z,9.61
2022-10-17T01:21:08.596Z,9.61
2022-10-17T01:22:08.587Z,9.61
2022-10-17T01:23:14.576Z,9.65
2022-10-17T01:24:08.560Z,9.64
2022-10-17T01:25:08.545Z,9.59
2022-10-17T01:26:08.532Z,9.55
2022-10-17T01:27:08.521Z,9.51
2022-10-17T01:28:08.505Z,9.51
2022-10-17T01:29:08.493Z,9.46
2022-10-17T01:30:08.684Z,9.44
2022-10-17T01:31:08.479Z,9.43
2022-10-17T01:32:08.459Z,9.41
2022-10-17T01:33:08.661Z,9.39
2022-10-17T01:34:08.624Z,9.40
2022-10-17T01:35:08.620Z,9.44
2022-10-17T01:36:08.409Z,9.41
2022-10-17T01:37:08.395Z,9.41
2022-10-17T01:38:08.387Z,9.41
2022-10-17T01:39:08.372Z,9.41
2022-10-17T01:40:08.352Z,9.39
2022-10-17T01:41:08.339Z,9.34
2022-10-17T01:42:08.336Z,9.32
2022-10-17T01:43:08.320Z,9.31
2022-10-17T01:44:08.302Z,9.31
2022-10-17T01:45:08.288Z,9.31
2022-10-17T01:46:08.278Z,9.29
2022-10-17T01:47:08.266Z,9.29
2022-10-17T01:48:08.253Z,9.26
2022-10-17T01:49:08.263Z,9.25
2022-10-17T01:50:08.227Z,9.25
2022-10-17T01:51:08.214Z,9.22
2022-10-17T01:52:08.200Z,9.19
2022-10-17T01:53:08.191Z,9.16
2022-10-17T01:54:08.175Z,9.21
2022-10-17T01:55:08.161Z,9.25
2022-10-17T01:56:08.153Z,9.25
2022-10-17T01:57:08.145Z,9.26
2022-10-17T01:58:08.119Z,9.26
2022-10-17T01:59:08.110Z,9.25
2022-10-17T02:00:08.101Z,9.22
2022-10-17T02:01:08.141Z,9.21
2022-10-17T02:02:08.071Z,9.19
2022-10-17T02:03:08.059Z,9.18
2022-10-17T02:04:08.042Z,9.16
2022-10-17T02:05:08.055Z,9.13
2022-10-17T02:06:08.025Z,9.11
2022-10-17T02:07:08.017Z,9.11
2022-10-17T02:08:07.993Z,9.11
2022-10-17T02:09:07.980Z,9.10
2022-10-17T02:10:07.967Z,9.10
2022-10-17T02:11:07.954Z,9.11
2022-10-17T02:12:07.944Z,9.08
2022-10-17T02:13:07.932Z,9.04
2022-10-17T02:14:07.985Z,8.99
2022-10-17T02:15:07.903Z,8.95
2022-10-17T02:16:07.890Z,8.91
2022-10-17T02:17:07.880Z,8.91
2022-10-17T02:18:07.865Z,8.95
2022-10-17T02:19:07.853Z,8.97
2022-10-17T02:20:07.841Z,8.92
2022-10-17T02:21:07.888Z,8.91
2022-10-17T02:22:07.815Z,8.85
2022-10-17T02:23:07.854Z,8.82
2022-10-17T02:24:07.787Z,8.79
2022-10-17T02:25:07.776Z,8.78
2022-10-17T02:26:07.762Z,8.74
2022-10-17T02:27:07.752Z,8.76
2022-10-17T02:28:07.736Z,8.73
2022-10-17T02:29:07.722Z,8.70
2022-10-17T02:30:07.720Z,8.69
2022-10-17T02:31:07.699Z,8.71
2022-10-17T02:32:07.686Z,8.71
2022-10-17T02:33:07.672Z,8.67
2022-10-17T02:34:07.666Z,8.73
2022-10-17T02:35:07.644Z,8.74
2022-10-17T02:36:07.635Z,8.76
2022-10-17T02:37:07.648Z,8.78
2022-10-17T02:38:07.643Z,8.76
2022-10-17T02:39:07.598Z,8.78
2022-10-17T02:40:07.581Z,8.78
2022-10-17T02:41:07.565Z,8.78
2022-10-17T02:42:07.556Z,8.81
2022-10-17T02:43:07.544Z,8.79
2022-10-17T02:44:07.534Z,8.81
2022-10-17T02:45:07.518Z,8.81
2022-10-17T02:46:07.504Z,8.79
2022-10-17T02:47:07.493Z,8.79
2022-10-17T02:48:07.478Z,8.79
2022-10-17T02:49:07.466Z,8.79
2022-10-17T02:50:07.453Z,8.78
2022-10-17T02:51:07.440Z,8.78
2022-10-17T02:52:07.426Z,8.76
2022-10-17T02:53:07.440Z,8.71
2022-10-17T02:54:07.417Z,8.69
2022-10-17T02:55:07.388Z,8.64
2022-10-17T02:56:07.375Z,8.61
2022-10-17T02:57:07.363Z,8.60
2022-10-17T02:58:07.351Z,8.60
2022-10-17T02:59:07.339Z,8.53
2022-10-17T03:00:07.324Z,8.49
2022-10-17T03:01:07.413Z,8.53
2022-10-17T03:02:07.298Z,8.55
2022-10-17T03:03:07.290Z,8.56
2022-10-17T03:04:07.273Z,8.56
2022-10-17T03:05:07.261Z,8.56
2022-10-17T03:06:07.251Z,8.58
2022-10-17T03:07:07.235Z,8.58
2022-10-17T03:08:07.223Z,8.61
2022-10-17T03:09:07.234Z,8.63
2022-10-17T03:10:07.199Z,8.63
2022-10-17T03:11:07.184Z,8.63
2022-10-17T03:12:07.174Z,8.60
2022-10-17T03:13:07.157Z,8.55
2022-10-17T03:14:07.142Z,8.51
2022-10-17T03:15:07.134Z,8.46
2022-10-17T03:16:07.123Z,8.44
2022-10-17T03:17:07.104Z,8.42
2022-10-17T03:18:07.091Z,8.42
2022-10-17T03:19:07.078Z,8.48
2022-10-17T03:20:07.069Z,8.51
2022-10-17T03:21:07.055Z,8.51
2022-10-17T03:22:07.049Z,8.48
2022-10-17T03:23:07.028Z,8.46
2022-10-17T03:24:07.015Z,8.45
2022-10-17T03:25:07.027Z,8.44
2022-10-17T03:26:06.989Z,8.42
2022-10-17T03:27:06.981Z,8.44
2022-10-17T03:28:06.968Z,8.44
2022-10-17T03:29:07.015Z,8.42
2022-10-17T03:30:06.940Z,8.37
2022-10-17T03:31:06.926Z,8.34
2022-10-17T03:32:06.915Z,8.30
2022-10-17T03:33:06.900Z,8.31
2022-10-17T03:34:06.894Z,8.33
2022-10-17T03:35:07.677Z,8.34
2022-10-17T03:36:06.868Z,8.30
2022-10-17T03:37:06.851Z,8.28
2022-10-17T03:38:06.843Z,8.30
2022-10-17T03:39:06.827Z,8.31
2022-10-17T03:40:06.811Z,8.31
2022-10-17T03:41:06.826Z,8.26
2022-10-17T03:42:06.789Z,8.23
2022-10-17T03:43:06.774Z,8.20
2022-10-17T03:44:06.760Z,8.19
2022-10-17T03:45:06.744Z,8.15
2022-10-17T03:46:06.782Z,8.10
2022-10-17T03:47:09.227Z,8.09
2022-10-17T03:48:06.706Z,8.08
2022-10-17T03:49:06.702Z,8.09
2022-10-17T03:50:06.675Z,8.10
2022-10-17T03:51:06.674Z,8.08
2022-10-17T03:52:06.658Z,8.08
2022-10-17T03:53:06.648Z,8.05
2022-10-17T03:54:06.635Z,8.08
2022-10-17T03:55:06.619Z,8.08
2022-10-17T03:56:06.606Z,8.06
2022-10-17T03:57:06.619Z,8.05
2022-10-17T03:58:06.580Z,8.09
2022-10-17T03:59:06.787Z,8.08
2022-10-17T04:00:06.559Z,8.12
2022-10-17T04:01:06.611Z,8.10
2022-10-17T04:02:06.529Z,8.12
2022-10-17T04:03:06.518Z,8.13
2022-10-17T04:04:06.512Z,8.15
2022-10-17T04:05:06.489Z,8.19
2022-10-17T04:06:06.485Z,8.16
2022-10-17T04:07:06.466Z,8.15
2022-10-17T04:08:06.453Z,8.15
2022-10-17T04:09:06.443Z,8.15
2022-10-17T04:10:06.429Z,8.12
2022-10-17T04:11:06.414Z,8.09
2022-10-17T04:12:06.406Z,8.12
2022-10-17T04:13:06.412Z,8.09
2022-10-17T04:14:06.375Z,8.09
2022-10-17T04:15:06.368Z,8.13
2022-10-17T04:16:06.347Z,8.12
2022-10-17T04:17:06.344Z,8.12
2022-10-17T04:18:06.390Z,8.16
2022-10-17T04:19:06.310Z,8.15
2022-10-17T04:20:06.303Z,8.16
2022-10-17T04:21:06.285Z,8.16
2022-10-17T04:22:06.270Z,8.15
2022-10-17T04:23:06.262Z,8.08
2022-10-17T04:24:06.248Z,8.05
2022-10-17T04:25:06.234Z,8.03
2022-10-17T04:26:06.234Z,8.05
2022-10-17T04:27:06.211Z,8.03
2022-10-17T04:28:06.201Z,8.01
2022-10-17T04:29:06.212Z,8.00
2022-10-17T04:30:06.172Z,7.97
2022-10-17T04:31:06.159Z,7.93
2022-10-17T04:32:06.149Z,7.91
2022-10-17T04:33:06.149Z,7.88
2022-10-17T04:34:06.129Z,7.85
2022-10-17T04:35:06.109Z,7.83
2022-10-17T04:36:06.096Z,7.80
2022-10-17T04:37:06.094Z,7.79
2022-10-17T04:38:06.075Z,7.82
2022-10-17T04:39:06.117Z,7.85
2022-10-17T04:40:06.046Z,7.87
2022-10-17T04:41:06.030Z,7.85
2022-10-17T04:42:06.017Z,7.83
2022-10-17T04:43:06.005Z,7.88
2022-10-17T04:44:05.998Z,7.91
2022-10-17T04:45:06.005Z,7.90
2022-10-17T04:46:05.974Z,7.88
2022-10-17T04:47:05.957Z,7.91
2022-10-17T04:48:05.944Z,7.87
2022-10-17T04:49:05.932Z,7.88
2022-10-17T04:50:05.919Z,7.88
2022-10-17T04:51:05.905Z,7.82
2022-10-17T04:52:05.894Z,7.82
2022-10-17T04:53:05.879Z,7.82
2022-10-17T04:54:05.869Z,7.83
2022-10-17T04:55:05.851Z,7.80
2022-10-17T04:56:05.844Z,7.79
2022-10-17T04:57:05.835Z,7.77
2022-10-17T04:58:05.814Z,7.76
2022-10-17T04:59:05.810Z,7.79
2022-10-17T05:00:05.841Z,7.79
2022-10-17T05:01:05.858Z,7.83
2022-10-17T05:02:05.762Z,7.83
2022-10-17T05:03:05.761Z,7.82
2022-10-17T05:04:05.741Z,7.82
2022-10-17T05:05:05.726Z,7.83
2022-10-17T05:06:05.713Z,7.82
2022-10-17T05:07:05.746Z,7.77
2022-10-17T05:08:05.682Z,7.73
2022-10-17T05:09:05.685Z,7.72
2022-10-17T05:10:05.861Z,7.72
2022-10-17T05:11:05.659Z,7.75
2022-10-17T05:12:08.094Z,7.72
2022-10-17T05:13:05.624Z,7.73
2022-10-17T05:14:05.610Z,7.75
2022-10-17T05:15:05.600Z,7.72
2022-10-17T05:16:05.591Z,7.75
2022-10-17T05:17:05.595Z,7.77
2022-10-17T05:18:05.559Z,7.76
2022-10-17T05:19:05.546Z,7.77
2022-10-17T05:20:05.535Z,7.80
2022-10-17T05:21:05.528Z,7.80
2022-10-17T05:22:05.511Z,7.83
2022-10-17T05:23:05.495Z,7.83
2022-10-17T05:24:05.485Z,7.82
2022-10-17T05:25:05.474Z,7.80
2022-10-17T05:26:05.480Z,7.77
2022-10-17T05:27:05.451Z,7.79
2022-10-17T05:28:05.447Z,7.77
2022-10-17T05:29:05.528Z,7.80
2022-10-17T05:30:05.409Z,7.80
2022-10-17T05:31:05.407Z,7.79
2022-10-17T05:32:05.383Z,7.76
2022-10-17T05:33:05.403Z,7.77
2022-10-17T05:34:07.960Z,7.77
2022-10-17T05:35:05.348Z,7.80
2022-10-17T05:36:05.331Z,7.82
2022-10-17T05:37:05.319Z,7.83
2022-10-17T05:38:05.308Z,7.85
2022-10-17T05:39:05.292Z,7.83
2022-10-17T05:40:05.279Z,7.83
2022-10-17T05:41:05.277Z,7.85
2022-10-17T05:42:05.264Z,7.83
2022-10-17T05:43:05.247Z,7.83
2022-10-17T05:44:05.755Z,7.83
2022-10-17T05:45:05.220Z,7.83
2022-10-17T05:46:05.219Z,7.83
2022-10-17T05:47:05.392Z,7.83
2022-10-17T05:48:05.187Z,7.82
2022-10-17T05:49:14.780Z,7.77
2022-10-17T05:50:06.181Z,7.75
2022-10-17T05:51:05.142Z,7.72
2022-10-17T05:52:05.141Z,7.70
2022-10-17T05:53:05.161Z,7.69
2022-10-17T05:54:05.105Z,7.70
2022-10-17T05:55:05.093Z,7.72
2022-10-17T05:56:05.079Z,7.72
2022-10-17T05:57:05.260Z,7.72
2022-10-17T05:58:05.052Z,7.73
2022-10-17T05:59:05.038Z,7.77
2022-10-17T06:00:05.027Z,7.80
2022-10-17T06:01:06.219Z,7.85
2022-10-17T06:02:05.057Z,7.90
2022-10-17T06:03:04.987Z,7.93
2022-10-17T06:04:04.973Z,7.94
2022-10-17T06:05:04.998Z,7.97
2022-10-17T06:06:04.952Z,7.94
2022-10-17T06:07:04.942Z,7.93
2022-10-17T06:08:05.123Z,7.93
2022-10-17T06:09:05.116Z,7.94
2022-10-17T06:10:04.984Z,7.94
2022-10-17T06:11:07.579Z,7.94
2022-10-17T06:12:04.874Z,7.95
2022-10-17T06:13:04.867Z,7.98
2022-10-17T06:14:04.845Z,8.01
2022-10-17T06:15:04.846Z,8.08
2022-10-17T06:16:04.814Z,8.10
2022-10-17T06:17:04.806Z,8.12
2022-10-17T06:18:04.801Z,8.12
2022-10-17T06:19:04.987Z,8.13
2022-10-17T06:20:04.775Z,8.18
2022-10-17T06:21:04.785Z,8.19
2022-10-17T06:22:04.742Z,8.26
2022-10-17T06:23:04.733Z,8.27
2022-10-17T06:24:04.719Z,8.28
2022-10-17T06:25:04.708Z,8.33
2022-10-17T06:26:04.687Z,8.36
2022-10-17T06:27:09.335Z,8.38
2022-10-17T06:28:05.702Z,8.42
2022-10-17T06:29:04.735Z,8.44
2022-10-17T06:30:04.655Z,8.48
2022-10-17T06:31:04.636Z,8.46
2022-10-17T06:32:04.611Z,8.44
2022-10-17T06:33:04.616Z,8.45
2022-10-17T06:34:04.595Z,8.42
2022-10-17T06:35:04.582Z,8.44
2022-10-17T06:36:04.563Z,8.44
2022-10-17T06:37:04.568Z,8.46
2022-10-17T06:38:04.539Z,8.48
2022-10-17T06:39:04.526Z,8.51
2022-10-17T06:40:04.515Z,8.52
2022-10-17T06:41:05.105Z,8.53
2022-10-17T06:42:04.485Z,8.60
2022-10-17T06:43:04.466Z,8.60
2022-10-17T06:44:04.459Z,8.61
2022-10-17T06:45:04.451Z,8.63
2022-10-17T06:46:04.435Z,8.66
2022-10-17T06:47:04.431Z,8.67
2022-10-17T06:48:04.404Z,8.74
2022-10-17T06:49:04.396Z,8.88
2022-10-17T06:50:04.387Z,9.06
2022-10-17T06:51:04.368Z,9.28
2022-10-17T06:52:04.358Z,9.50
2022-10-17T06:53:04.374Z,9.74
2022-10-17T06:54:04.531Z,9.94
2022-10-17T06:55:04.354Z,10.04
2022-10-17T06:56:04.308Z,10.33
2022-10-17T06:57:04.291Z,10.61
2022-10-17T06:58:04.289Z,10.67
2022-10-17T06:59:04.272Z,10.56
2022-10-17T07:00:04.493Z,10.69
2022-10-17T07:01:04.422Z,10.87
2022-10-17T07:02:04.254Z,11.10
2022-10-17T07:03:04.228Z,11.08
2022-10-17T07:04:04.403Z,11.07
2022-10-17T07:05:04.195Z,10.92
2022-10-17T07:06:04.194Z,10.86
2022-10-17T07:07:04.178Z,10.71
2022-10-17T07:08:04.153Z,10.56
2022-10-17T07:09:04.176Z,10.51
2022-10-17T07:10:04.126Z,10.53
2022-10-17T07:11:04.128Z,10.56
2022-10-17T07:12:04.111Z,10.54
2022-10-17T07:13:04.112Z,10.54
2022-10-17T07:14:04.080Z,10.59
2022-10-17T07:15:04.066Z,10.61
2022-10-17T07:16:04.059Z,10.56
2022-10-17T07:17:04.045Z,10.59
2022-10-17T07:18:04.031Z,10.69
2022-10-17T07:19:04.019Z,10.87
2022-10-17T07:20:04.009Z,11.00
2022-10-17T07:21:03.991Z,11.08
2022-10-17T07:22:03.981Z,10.97
2022-10-17T07:23:03.974Z,10.94
2022-10-17T07:24:03.964Z,10.89
2022-10-17T07:25:03.975Z,10.87
2022-10-17T07:26:03.970Z,10.84
2022-10-17T07:27:03.918Z,10.75
2022-10-17T07:28:03.911Z,10.78
2022-10-17T07:29:03.939Z,10.87
2022-10-17T07:30:03.876Z,10.92
2022-10-17T07:31:03.874Z,10.94
2022-10-17T07:32:04.064Z,10.94
2022-10-17T07:33:03.846Z,10.94
2022-10-17T07:34:03.827Z,10.97
2022-10-17T07:35:03.816Z,11.00
2022-10-17T07:36:03.802Z,11.00
2022-10-17T07:37:03.792Z,11.07
2022-10-17T07:38:03.777Z,11.05
2022-10-17T07:39:03.765Z,11.05
2022-10-17T07:40:03.745Z,11.11
2022-10-17T07:41:03.875Z,11.15
2022-10-17T07:42:03.728Z,11.23
2022-10-17T07:43:03.707Z,11.40
2022-10-17T07:44:03.710Z,11.44
2022-10-17T07:45:03.690Z,11.48
2022-10-17T07:46:03.675Z,11.48
2022-10-17T07:47:03.667Z,11.51
2022-10-17T07:48:03.655Z,11.57
2022-10-17T07:49:03.638Z,11.63
2022-10-17T07:50:03.627Z,11.69
2022-10-17T07:51:03.616Z,11.72
2022-10-17T07:52:03.593Z,11.77
2022-10-17T07:53:03.586Z,11.80
2022-10-17T07:54:03.573Z,11.86
2022-10-17T07:55:03.562Z,11.90
2022-10-17T07:56:03.554Z,11.95
2022-10-17T07:57:03.560Z,12.00
2022-10-17T07:58:03.526Z,12.06
2022-10-17T07:59:05.300Z,12.13
2022-10-17T08:00:03.500Z,12.20
2022-10-17T08:01:03.535Z,12.25
2022-10-17T08:02:03.481Z,12.32
2022-10-17T08:03:03.464Z,12.36
2022-10-17T08:04:03.677Z,12.45
2022-10-17T08:05:03.445Z,12.50
2022-10-17T08:06:03.420Z,12.60
2022-10-17T08:07:19.689Z,12.70
2022-10-17T08:08:04.430Z,12.79
2022-10-17T08:09:03.392Z,12.87
2022-10-17T08:10:03.448Z,12.93
2022-10-17T08:11:03.353Z,13.04
2022-10-17T08:12:03.346Z,13.13
2022-10-17T08:13:03.363Z,13.22
2022-10-17T08:14:03.321Z,13.28
2022-10-17T08:15:03.518Z,13.38
2022-10-17T08:16:03.297Z,13.44
2022-10-17T08:17:03.287Z,13.53
2022-10-17T08:18:03.268Z,13.62
2022-10-17T08:19:03.306Z,13.77
2022-10-17T08:20:03.258Z,13.99
2022-10-17T08:21:03.234Z,14.12
2022-10-17T08:22:03.220Z,14.40
2022-10-17T08:23:03.410Z,14.70
2022-10-17T08:24:03.195Z,15.21
2022-10-17T08:25:03.181Z,15.65
2022-10-17T08:26:03.182Z,16.04
2022-10-17T08:27:03.156Z,16.58
2022-10-17T08:28:03.202Z,16.76
2022-10-17T08:29:03.274Z,16.81
2022-10-17T08:30:03.116Z,16.86
2022-10-17T08:31:03.107Z,16.96
2022-10-17T08:32:09.950Z,17.33
2022-10-17T08:33:03.076Z,17.54
2022-10-17T08:34:03.077Z,17.67
2022-10-17T08:35:03.062Z,17.70
2022-10-17T08:36:03.038Z,17.79
2022-10-17T08:37:03.086Z,18.07
2022-10-17T08:38:03.017Z,18.53
2022-10-17T08:39:03.011Z,18.84
2022-10-17T08:40:02.991Z,18.99
2022-10-17T08:41:02.987Z,19.11
2022-10-17T08:42:02.968Z,19.14
2022-10-17T08:43:02.955Z,18.86
2022-10-17T08:44:02.942Z,18.60
2022-10-17T08:45:02.960Z,18.62
2022-10-17T08:46:03.187Z,18.63
2022-10-17T08:47:02.903Z,18.70
2022-10-17T08:48:02.890Z,18.68
2022-10-17T08:49:03.078Z,18.81
2022-10-17T08:50:02.863Z,19.04
2022-10-17T08:51:02.848Z,19.31
2022-10-17T08:52:02.846Z,19.41
2022-10-17T08:53:02.856Z,19.45
2022-10-17T08:54:02.817Z,19.48
2022-10-17T08:55:02.816Z,19.62
2022-10-17T08:56:02.802Z,20.00
2022-10-17T08:57:02.780Z,20.29
2022-10-17T08:58:02.963Z,20.47
2022-10-17T08:59:02.745Z,20.59
2022-10-17T09:00:02.934Z,20.65
2022-10-17T09:01:02.747Z,20.56
2022-10-17T09:02:02.724Z,20.44
2022-10-17T09:03:02.776Z,20.26
2022-10-17T09:04:02.881Z,20.16
2022-10-17T09:05:02.674Z,20.39
2022-10-17T09:06:02.661Z,20.81
2022-10-17T09:07:02.646Z,21.07
2022-10-17T09:08:02.638Z,21.22
2022-10-17T09:09:02.619Z,21.14
2022-10-17T09:10:02.610Z,21.20
2022-10-17T09:11:02.791Z,21.32
2022-10-17T09:12:02.579Z,21.27
2022-10-17T09:13:07.737Z,21.11
2022-10-17T09:14:02.551Z,20.93
2022-10-17T09:15:02.545Z,20.77
2022-10-17T09:16:02.529Z,20.59
2022-10-17T09:17:02.540Z,20.51
2022-10-17T09:18:02.704Z,20.44
2022-10-17T09:19:02.494Z,20.24
2022-10-17T09:20:02.479Z,19.95
2022-10-17T09:21:02.468Z,19.74
2022-10-17T09:22:02.463Z,19.54
2022-10-17T09:23:02.453Z,19.44
2022-10-17T09:24:09.704Z,19.56
2022-10-17T09:25:03.450Z,19.91
2022-10-17T09:26:02.401Z,20.07
2022-10-17T09:27:02.389Z,20.67
2022-10-17T09:28:02.372Z,21.48
2022-10-17T09:29:02.445Z,22.07
2022-10-17T09:30:02.349Z,22.30
2022-10-17T09:31:02.339Z,22.17
2022-10-17T09:32:02.526Z,22.00
2022-10-17T09:33:02.349Z,21.93
2022-10-17T09:34:02.302Z,21.83
2022-10-17T09:35:02.289Z,21.60
2022-10-17T09:36:02.277Z,21.36
2022-10-17T09:37:02.279Z,21.18
2022-10-17T09:38:02.250Z,21.06
2022-10-17T09:39:02.238Z,20.96
2022-10-17T09:40:02.223Z,20.85
2022-10-17T09:41:02.476Z,20.85
2022-10-17T09:42:02.207Z,21.07
2022-10-17T09:43:02.188Z,21.51
2022-10-17T09:44:02.171Z,21.85
2022-10-17T09:45:02.203Z,21.99
2022-10-17T09:46:02.149Z,22.33
2022-10-17T09:47:02.143Z,22.63
2022-10-17T09:48:02.174Z,22.78
2022-10-17T09:50:02.163Z,22.70
2022-10-17T09:51:14.674Z,22.39
2022-10-17T09:52:03.104Z,21.95
2022-10-17T09:53:02.062Z,21.54
2022-10-17T09:54:02.050Z,21.36
2022-10-17T09:55:02.049Z,21.25
2022-10-17T09:56:02.029Z,20.99
2022-10-17T09:57:02.022Z,20.85
2022-10-17T09:58:02.007Z,20.85
2022-10-17T09:59:01.989Z,20.85
2022-10-17T10:00:02.113Z,20.97
2022-10-17T10:01:02.007Z,21.06
2022-10-17T10:02:01.952Z,21.05
2022-10-17T10:03:01.935Z,21.02
2022-10-17T10:04:01.935Z,21.11
2022-10-17T10:05:06.398Z,21.22
2022-10-17T10:06:01.894Z,21.39
2022-10-17T10:07:01.889Z,21.52
2022-10-17T10:08:02.063Z,21.66
2022-10-17T10:09:01.859Z,21.73
2022-10-17T10:10:01.847Z,21.72
2022-10-17T10:11:01.839Z,21.62
2022-10-17T10:12:01.837Z,21.62
2022-10-17T10:13:01.807Z,21.37
2022-10-17T10:14:01.799Z,21.21
2022-10-17T10:15:01.980Z,21.25
2022-10-17T10:16:01.772Z,21.39
2022-10-17T10:17:01.756Z,21.46
2022-10-17T10:18:01.746Z,21.45
2022-10-17T10:19:04.680Z,21.46
2022-10-17T10:20:02.750Z,21.60
2022-10-17T10:21:01.731Z,21.62
2022-10-17T10:22:01.727Z,21.58
2022-10-17T10:23:01.684Z,21.54
2022-10-17T10:24:01.672Z,21.72
2022-10-17T10:25:01.652Z,21.88
2022-10-17T10:26:01.649Z,21.95
2022-10-17T10:27:01.641Z,21.98
2022-10-17T10:28:01.801Z,22.02
2022-10-17T10:29:01.724Z,21.95
2022-10-17T10:30:01.615Z,21.82
2022-10-17T10:31:01.584Z,21.80
2022-10-17T10:32:01.587Z,21.76
2022-10-17T10:33:01.551Z,21.75
2022-10-17T10:34:01.542Z,21.73
2022-10-17T10:35:01.534Z,21.76
2022-10-17T10:36:01.527Z,21.77
2022-10-17T10:37:01.536Z,21.75
2022-10-17T10:38:01.493Z,21.83
2022-10-17T10:39:03.934Z,21.85
2022-10-17T10:40:01.506Z,21.82
2022-10-17T10:41:01.452Z,21.79
2022-10-17T10:42:01.450Z,21.79
2022-10-17T10:43:05.341Z,21.80
2022-10-17T10:44:01.419Z,21.85
2022-10-17T10:45:01.438Z,21.88
2022-10-17T10:46:01.384Z,21.96
2022-10-17T10:47:01.373Z,21.99
2022-10-17T10:48:01.361Z,22.02
2022-10-17T10:49:01.355Z,22.10
2022-10-17T10:50:01.338Z,22.10
2022-10-17T10:51:01.326Z,22.10
2022-10-17T10:52:01.530Z,22.08
2022-10-17T10:53:01.321Z,22.10
2022-10-17T10:54:01.290Z,22.11
2022-10-17T10:55:01.290Z,22.17
2022-10-17T10:56:01.261Z,22.17
2022-10-17T10:57:01.246Z,22.14
2022-10-17T10:58:01.248Z,22.11
2022-10-17T10:59:01.232Z,22.18
2022-10-17T11:00:01.210Z,22.20
2022-10-17T11:01:01.287Z,22.20
2022-10-17T11:02:01.195Z,22.22
2022-10-17T11:03:01.921Z,22.26
2022-10-17T11:04:01.161Z,22.17
2022-10-17T11:05:01.167Z,22.20
2022-10-17T11:06:01.144Z,22.17
2022-10-17T11:07:01.125Z,22.17
2022-10-17T11:08:01.111Z,22.20
2022-10-17T11:09:01.122Z,22.29
2022-10-17T11:10:01.114Z,22.36
2022-10-17T11:11:01.075Z,22.35
2022-10-17T11:12:01.058Z,22.30
2022-10-17T11:13:01.258Z,22.33
2022-10-17T11:14:01.030Z,22.35
2022-10-17T11:15:01.018Z,22.41
2022-10-17T11:16:01.011Z,22.38
2022-10-17T11:17:00.999Z,22.30
2022-10-17T11:18:00.980Z,22.29
2022-10-17T11:19:00.971Z,22.25
2022-10-17T11:20:00.968Z,22.23
2022-10-17T11:21:00.945Z,22.18
2022-10-17T11:22:00.937Z,22.20
2022-10-17T11:23:00.924Z,22.14
2022-10-17T11:24:00.916Z,22.13
2022-10-17T11:25:00.922Z,22.13
2022-10-17T11:26:00.881Z,22.08
2022-10-17T11:27:00.879Z,22.13
2022-10-17T11:28:04.615Z,22.17
2022-10-17T11:29:00.892Z,22.18
2022-10-17T11:30:00.831Z,22.14
2022-10-17T11:31:03.386Z,22.06
2022-10-17T11:32:00.800Z,21.96
2022-10-17T11:33:00.789Z,21.99
2022-10-17T11:34:00.779Z,21.95
2022-10-17T11:35:00.967Z,21.91
2022-10-17T11:36:00.947Z,21.85
2022-10-17T11:37:00.737Z,21.85
2022-10-17T11:38:00.732Z,21.89
2022-10-17T11:39:00.714Z,21.85
2022-10-17T11:40:00.708Z,21.79
2022-10-17T11:41:00.715Z,21.80
2022-10-17T11:42:03.372Z,21.88
2022-10-17T11:43:00.665Z,21.89
2022-10-17T11:44:00.855Z,21.83
2022-10-17T11:45:00.637Z,21.82
2022-10-17T11:46:00.614Z,21.83
2022-10-17T11:47:00.812Z,21.85
2022-10-17T11:48:00.607Z,21.80
2022-10-17T11:49:00.591Z,21.76
2022-10-17T11:51:59.711Z,21.72
2022-10-17T11:52:02.122Z,21.72
2022-10-17T11:53:00.790Z,21.77
2022-10-17T11:54:00.718Z,21.83
2022-10-17T11:55:00.725Z,21.83
2022-10-17T11:56:00.513Z,21.88
2022-10-17T11:57:00.705Z,21.89
2022-10-17T11:58:00.510Z,21.92
2022-10-17T11:59:00.477Z,21.95
2022-10-17T12:00:00.453Z,21.99
2022-10-17T12:01:00.434Z,22.00
2022-10-17T12:02:00.428Z,21.99
2022-10-17T12:03:00.408Z,21.99
2022-10-17T12:04:00.455Z,21.93
2022-10-17T12:05:00.389Z,21.93
2022-10-17T12:06:00.370Z,21.98
2022-10-17T12:07:00.360Z,21.99
2022-10-17T12:08:00.345Z,21.98
2022-10-17T12:09:00.332Z,21.99
2022-10-17T12:10:00.322Z,21.99
2022-10-17T12:11:01.146Z,22.02
2022-10-17T12:12:00.295Z,22.04
2022-10-17T12:13:00.305Z,22.00
2022-10-17T12:14:04.929Z,21.98
2022-10-17T12:15:00.258Z,21.98
2022-10-17T12:16:00.243Z,22.02
2022-10-17T12:17:06.243Z,22.04
2022-10-17T12:18:00.223Z,22.06
2022-10-17T12:19:00.206Z,22.07
2022-10-17T12:20:00.192Z,22.02
2022-10-17T12:21:00.201Z,21.95
2022-10-17T12:22:00.173Z,21.95
2022-10-17T12:23:00.153Z,21.88
2022-10-17T12:24:00.142Z,21.89
2022-10-17T12:25:00.131Z,21.88
2022-10-17T12:26:03.378Z,21.91
2022-10-17T12:27:00.117Z,21.93
2022-10-17T12:28:00.090Z,21.98
2022-10-17T12:29:00.276Z,22.04
2022-10-17T12:30:00.072Z,22.06
2022-10-17T12:31:00.052Z,22.07
2022-10-17T12:32:00.035Z,22.08
2022-10-17T12:33:06.143Z,22.13
2022-10-17T12:34:07.049Z,22.13
2022-10-17T12:35:01.136Z,22.13
2022-10-17T12:35:59.977Z,22.13
2022-10-17T12:36:59.980Z,22.11
2022-10-17T12:37:59.968Z,22.15
2022-10-17T12:38:59.953Z,22.14
2022-10-17T12:39:59.940Z,22.18
2022-10-17T12:40:59.923Z,22.23
2022-10-17T12:41:59.921Z,22.28
2022-10-17T12:42:59.895Z,22.26
2022-10-17T12:43:59.884Z,22.25
2022-10-17T12:44:59.924Z,22.23
2022-10-17T12:45:59.854Z,22.26
2022-10-17T12:46:59.843Z,22.30
2022-10-17T12:47:59.893Z,22.35
2022-10-17T12:48:59.825Z,22.32
2022-10-17T12:49:59.811Z,22.33
2022-10-17T12:51:17.681Z,22.33
2022-10-17T12:52:01.015Z,22.38
2022-10-17T12:52:59.765Z,22.36
2022-10-17T12:53:59.759Z,22.35
2022-10-17T12:55:11.678Z,22.36
2022-10-17T12:56:00.770Z,22.39
2022-10-17T12:56:59.732Z,22.38
2022-10-17T12:57:59.966Z,22.33
2022-10-17T12:58:59.900Z,22.35
2022-10-17T12:59:59.675Z,22.36
2022-10-17T13:01:22.596Z,22.33
2022-10-17T13:02:00.753Z,22.35
2022-10-17T13:02:59.643Z,22.36
2022-10-17T13:03:59.637Z,22.38
2022-10-17T13:04:59.624Z,22.36
2022-10-17T13:05:59.607Z,22.39
2022-10-17T13:06:59.598Z,22.39